To NAV CANADA Home Page Login to a new session Search on AWWS site Feedback and Comments Disclaimer Vers la page française équivalente Tips FAQ What's new on the site To the Forecasts and Observations / NOTAM section To "File a Flight Plan" website Publications and other links Update of the User's profile FIC Telephone Numbers My Weather Data Folder Route Weather Data Regional Weather Data Local Weather Data To the Forecasts and Observations / NOTAM section
Request Generated 08/27/2016 at 20:23:57 UTC . Weather information available at that time is displayed.

METAR/TAF

ST. JOHN'S/ST. JOHN'S INTL/NL    

METAR CYYT 272000Z 35012G23KT 15SM FEW020 BKN045 14/10 A2990 RMK
SC2SC3 SLP129=
METAR CYYT 271900Z 01017G25KT 15SM SCT015 OVC035 13/09 A2988 RMK
SC3SC5 SLP123=
SPECI CYYT 271825Z 01014G22KT 15SM SCT012 OVC031 13/11 A2987 RMK
NS3SC5 SLP118=
METAR CYYT 271800Z 01017G25KT 15SM -DZ OVC007 13/11 A2986 RMK SF8
SLP114=

TAF CYYT 271738Z 2718/2818 02018G28KT P6SM SCT006 OVC025 TEMPO
2718/2721 5SM -DZ BR OVC006
FM272100 35015G25KT P6SM BKN030 TEMPO 2721/2724 BKN020
FM280000 34015G25KT P6SM FEW030
BECMG 2802/2804 31012G22KT
FM281200 32015G25KT P6SM SCT025
RMK NXT FCST BY 280000Z=
Your time UTC time
Weather data provided by Environment Canada and NAV CANADA